Time;durP1;ratioP1;P1;durP2;ratioP2;P2;SDS_P1;SDS_P2;PMS_P1;PMS_P2;Temp;Humidity;BMP_temperature;BMP_pressure;BME280_temperature;BME280_humidity;BME280_pressure;Samples;Min_cycle;Max_cycle;Signal;HPM_P1;HPM_P2
2022/01/28 00:01:56;;;;;;;;;;;10.10;78.60;;;;;;4940320;29;19906;-80
2022/01/28 00:04:21;;;;;;;;;;;10.10;78.70;;;;;;4940471;29;19917;-80
2022/01/28 00:06:47;;;;;;;;;;;10.10;78.50;;;;;;4939742;29;19903;-81
2022/01/28 00:09:12;;;;;;;;;;;10.10;78.50;;;;;;4956628;29;19995;-80
2022/01/28 00:11:37;;;;;;;;;;;10.10;78.40;;;;;;4939230;29;20262;-81
2022/01/28 00:17:25;;;;;;;;;;;10.10;78.60;;;;;;4957025;29;20320;-80
2022/01/28 00:38:33;;;;;;;;;;;10.10;78.80;;;;;;4943463;29;19913;-81
2022/01/28 00:40:59;;;;;;;;;;;10.10;78.90;;;;;;4926219;29;19903;-80
2022/01/28 00:43:24;;;;;;;;;;;10.10;78.90;;;;;;4943302;29;19903;-81
2022/01/28 00:45:50;;;;;;;;;;;10.10;78.90;;;;;;4932575;29;19957;-80
2022/01/28 00:48:16;;;;;;;;;;;10.10;78.90;;;;;;4945199;29;19988;-80
2022/01/28 00:50:42;;;;;;;;;;;10.10;78.90;;;;;;4945740;29;19902;-80
2022/01/28 00:53:09;;;;;;;;;;;10.10;78.80;;;;;;4945319;29;19903;-80
2022/01/28 00:55:34;;;;;;;;;;;10.10;78.80;;;;;;4945903;29;19903;-81
2022/01/28 00:58:00;;;;;;;;;;;10.10;78.90;;;;;;4946073;29;19914;-80
2022/01/28 01:00:25;;;;;;;;;;;10.10;78.90;;;;;;4946136;29;19910;-80
2022/01/28 01:02:51;;;;;;;;;;;10.10;78.90;;;;;;4946293;29;19914;-81
2022/01/28 01:05:16;;;;;;;;;;;10.10;78.80;;;;;;4945032;29;20268;-81
2022/01/28 01:07:41;;;;;;;;;;;10.10;78.70;;;;;;4946267;29;19902;-81
2022/01/28 01:10:07;;;;;;;;;;;10.10;78.50;;;;;;4947867;28;19902;-81
2022/01/28 01:12:37;;;;;;;;;;;10.10;78.50;;;;;;4946711;29;19910;-80
2022/01/28 01:15:03;;;;;;;;;;;10.10;78.60;;;;;;4946351;29;20377;-80
2022/01/28 01:17:44;;;;;;;;;;;10.10;78.60;;;;;;4945656;29;19906;-80
2022/01/28 01:20:34;;;;;;;;;;;10.10;78.50;;;;;;4945575;29;19914;-81
2022/01/28 01:25:37;;;;;;;;;;;10.10;78.50;;;;;;4962389;28;19909;-81
2022/01/28 01:28:03;;;;;;;;;;;10.10;78.40;;;;;;4945239;29;19953;-81
2022/01/28 01:30:32;;;;;;;;;;;10.10;78.40;;;;;;4945470;29;19902;-80
2022/01/28 01:32:58;;;;;;;;;;;10.10;78.50;;;;;;4944211;28;20369;-80
2022/01/28 01:35:24;;;;;;;;;;;10.10;78.50;;;;;;4942214;29;19906;-81
2022/01/28 01:37:49;;;;;;;;;;;10.10;78.50;;;;;;4942478;29;19913;-80
2022/01/28 01:40:20;;;;;;;;;;;10.00;78.40;;;;;;4942168;29;19902;-80
2022/01/28 01:42:54;;;;;;;;;;;10.10;78.50;;;;;;4942868;29;20001;-81
2022/01/28 01:53:25;;;;;;;;;;;10.00;78.30;;;;;;4966767;29;20265;-81
2022/01/28 01:55:51;;;;;;;;;;;10.10;78.40;;;;;;4941997;29;19903;-81
2022/01/28 01:58:19;;;;;;;;;;;10.00;78.20;;;;;;4942276;29;19912;-80
2022/01/28 02:00:45;;;;;;;;;;;10.10;78.30;;;;;;4941655;29;19954;-81
2022/01/28 02:03:10;;;;;;;;;;;10.00;78.20;;;;;;4941697;29;19997;-79
2022/01/28 02:05:36;;;;;;;;;;;10.00;78.20;;;;;;4950347;29;19909;-79
2022/01/28 02:08:06;;;;;;;;;;;10.00;78.30;;;;;;4959242;28;20005;-80
2022/01/28 02:10:33;;;;;;;;;;;10.00;78.20;;;;;;4942189;29;19902;-81
2022/01/28 02:12:58;;;;;;;;;;;10.00;78.30;;;;;;4942473;29;19903;-80
2022/01/28 02:15:23;;;;;;;;;;;10.00;78.20;;;;;;4942104;29;20001;-81
2022/01/28 02:17:49;;;;;;;;;;;10.10;78.30;;;;;;4942750;29;20361;-79
2022/01/28 02:20:16;;;;;;;;;;;10.00;78.20;;;;;;4942345;29;19907;-79
2022/01/28 02:22:42;;;;;;;;;;;10.10;78.20;;;;;;4943057;29;19906;-80
2022/01/28 02:25:19;;;;;;;;;;;10.00;78.20;;;;;;4947230;29;19995;-77
2022/01/28 02:27:44;;;;;;;;;;;10.00;78.20;;;;;;4945971;29;20378;-79
2022/01/28 02:30:11;;;;;;;;;;;10.00;78.00;;;;;;4942726;28;19917;-80
2022/01/28 02:32:38;;;;;;;;;;;10.00;78.10;;;;;;4958461;29;19910;-80
2022/01/28 02:35:04;;;;;;;;;;;10.10;78.10;;;;;;4941222;29;20353;-80
2022/01/28 02:37:29;;;;;;;;;;;10.10;78.20;;;;;;4957824;29;19909;-81
2022/01/28 02:39:54;;;;;;;;;;;10.00;78.20;;;;;;4940269;28;19910;-81
2022/01/28 02:42:30;;;;;;;;;;;10.00;78.20;;;;;;4942124;29;19952;-80
2022/01/28 02:44:57;;;;;;;;;;;10.10;78.20;;;;;;4942754;29;19902;-80
2022/01/28 02:47:33;;;;;;;;;;;10.00;78.10;;;;;;4942097;29;20341;-80
2022/01/28 02:49:58;;;;;;;;;;;10.00;78.20;;;;;;4941778;28;20365;-80
2022/01/28 02:52:38;;;;;;;;;;;10.00;78.10;;;;;;4941462;29;19906;-80
2022/01/28 02:55:09;;;;;;;;;;;10.00;78.10;;;;;;4941054;29;19916;-80
2022/01/28 02:57:38;;;;;;;;;;;10.10;78.20;;;;;;4940713;29;19969;-81
2022/01/28 03:00:04;;;;;;;;;;;10.00;78.20;;;;;;4941287;28;19906;-81
2022/01/28 03:02:29;;;;;;;;;;;10.00;78.10;;;;;;4939825;29;20004;-81
2022/01/28 03:07:25;;;;;;;;;;;10.00;78.10;;;;;;4957314;29;19953;-81
2022/01/28 03:10:14;;;;;;;;;;;10.00;78.10;;;;;;4939650;28;19906;-79
2022/01/28 03:12:59;;;;;;;;;;;10.00;78.10;;;;;;4955883;29;19910;-81
2022/01/28 03:15:23;;;;;;;;;;;10.00;78.10;;;;;;4956921;29;20366;-81
2022/01/28 03:18:05;;;;;;;;;;;10.00;78.10;;;;;;4939799;29;19910;-81
2022/01/28 03:20:38;;;;;;;;;;;10.00;78.10;;;;;;4930576;29;19961;-81
2022/01/28 03:23:04;;;;;;;;;;;10.00;78.10;;;;;;4939223;29;19918;-81
2022/01/28 03:25:29;;;;;;;;;;;10.00;78.10;;;;;;4956581;29;19936;-81
2022/01/28 03:27:58;;;;;;;;;;;10.00;78.10;;;;;;4939483;29;19949;-81
2022/01/28 03:30:23;;;;;;;;;;;10.00;78.00;;;;;;4939235;29;19921;-81
2022/01/28 03:32:49;;;;;;;;;;;10.00;77.90;;;;;;4956653;29;19910;-80
2022/01/28 03:35:16;;;;;;;;;;;10.00;77.90;;;;;;4938885;29;19906;-80
2022/01/28 03:37:42;;;;;;;;;;;10.00;77.90;;;;;;4939113;29;20259;-81
2022/01/28 03:40:08;;;;;;;;;;;10.00;77.80;;;;;;4956209;29;19913;-81
2022/01/28 03:42:34;;;;;;;;;;;10.00;77.80;;;;;;4939111;29;20352;-81
2022/01/28 03:44:59;;;;;;;;;;;10.00;77.80;;;;;;4937486;29;20022;-81
2022/01/28 03:47:25;;;;;;;;;;;10.00;77.90;;;;;;4987449;23;19921;-81
2022/01/28 03:49:50;;;;;;;;;;;10.00;77.90;;;;;;4961842;28;20012;-80
2022/01/28 03:52:16;;;;;;;;;;;10.00;78.00;;;;;;4979635;28;19953;-79
2022/01/28 03:54:41;;;;;;;;;;;10.00;78.00;;;;;;4962289;28;19964;-80
2022/01/28 03:57:07;;;;;;;;;;;10.00;78.00;;;;;;4978763;28;19982;-80
2022/01/28 03:59:33;;;;;;;;;;;10.00;77.90;;;;;;4979400;28;19953;-79
2022/01/28 04:01:58;;;;;;;;;;;10.00;77.90;;;;;;4961378;28;19964;-80
2022/01/28 04:12:24;;;;;;;;;;;10.00;77.80;;;;;;4948240;28;19906;-79
2022/01/28 04:15:19;;;;;;;;;;;9.90;77.70;;;;;;4960632;28;19917;-80
2022/01/28 04:17:45;;;;;;;;;;;10.00;78.20;;;;;;4960745;28;19909;-79
2022/01/28 04:20:10;;;;;;;;;;;10.00;77.70;;;;;;4978288;28;19960;-79
2022/01/28 04:22:36;;;;;;;;;;;10.00;77.60;;;;;;4959643;28;19986;-80
2022/01/28 04:25:02;;;;;;;;;;;10.00;77.60;;;;;;4960155;28;19941;-81
2022/01/28 04:27:27;;;;;;;;;;;10.00;77.50;;;;;;4959845;28;19913;-80
2022/01/28 04:29:53;;;;;;;;;;;10.00;77.50;;;;;;4967737;28;19913;-79
2022/01/28 04:32:19;;;;;;;;;;;10.00;77.50;;;;;;4976270;28;20008;-79
2022/01/28 04:34:45;;;;;;;;;;;10.00;77.50;;;;;;4959667;28;19906;-79
2022/01/28 04:40:23;;;;;;;;;;;9.80;77.50;;;;;;4977844;28;20399;-80
2022/01/28 04:43:08;;;;;;;;;;;9.80;77.50;;;;;;4965983;28;19939;-79
2022/01/28 04:45:54;;;;;;;;;;;9.90;77.50;;;;;;4939564;29;19910;-79
2022/01/28 04:48:34;;;;;;;;;;;9.90;77.50;;;;;;4939056;29;19914;-79
2022/01/28 05:01:24;;;;;;;;;;;9.90;77.50;;;;;;4937175;29;19915;-79
2022/01/28 05:04:09;;;;;;;;;;;9.90;77.60;;;;;;4920333;29;19970;-79
2022/01/28 05:09:41;;;;;;;;;;;9.90;77.80;;;;;;4938825;29;20481;-79
2022/01/28 05:12:47;;;;;;;;;;;9.90;77.90;;;;;;4943355;29;19911;-81
2022/01/28 05:27:45;;;;;;;;;;;9.90;77.60;;;;;;4964612;29;20012;-79
2022/01/28 05:30:11;;;;;;;;;;;9.90;77.70;;;;;;4946225;29;19907;-79
2022/01/28 05:32:37;;;;;;;;;;;9.90;77.80;;;;;;4969435;28;19913;-80
2022/01/28 05:35:02;;;;;;;;;;;9.90;77.80;;;;;;4980277;28;19917;-80
2022/01/28 05:37:28;;;;;;;;;;;9.90;77.80;;;;;;4946355;29;19917;-79
2022/01/28 05:39:53;;;;;;;;;;;9.90;77.80;;;;;;4961144;28;19906;-79
2022/01/28 05:42:19;;;;;;;;;;;9.90;77.80;;;;;;4964272;28;19949;-79
2022/01/28 05:44:44;;;;;;;;;;;9.90;77.90;;;;;;4974393;28;19917;-77
2022/01/28 05:47:14;;;;;;;;;;;9.90;77.90;;;;;;4938014;29;19910;-78
2022/01/28 05:49:41;;;;;;;;;;;9.90;77.90;;;;;;4943689;29;20422;-77
2022/01/28 05:52:06;;;;;;;;;;;9.90;77.90;;;;;;4945544;29;19916;-79
2022/01/28 05:54:32;;;;;;;;;;;9.90;78.00;;;;;;4972076;28;19910;-78
2022/01/28 05:56:57;;;;;;;;;;;9.90;78.00;;;;;;4973496;28;20384;-80
2022/01/28 05:59:23;;;;;;;;;;;9.90;77.90;;;;;;4946111;28;19913;-78
2022/01/28 06:01:48;;;;;;;;;;;9.90;77.80;;;;;;4959315;28;19918;-80
2022/01/28 06:04:15;;;;;;;;;;;9.90;77.70;;;;;;4947535;28;19906;-79
2022/01/28 06:06:41;;;;;;;;;;;9.90;77.70;;;;;;4946045;29;19978;-79
2022/01/28 06:09:06;;;;;;;;;;;9.90;77.70;;;;;;4940641;29;20385;-80
2022/01/28 06:11:32;;;;;;;;;;;9.90;77.80;;;;;;4940018;29;19910;-78
2022/01/28 06:13:57;;;;;;;;;;;9.90;77.60;;;;;;4956083;29;19914;-79
2022/01/28 06:16:23;;;;;;;;;;;9.80;77.60;;;;;;4957346;29;19914;-80
2022/01/28 06:18:48;;;;;;;;;;;9.80;77.80;;;;;;4934746;29;19929;-80
2022/01/28 06:21:14;;;;;;;;;;;9.90;77.70;;;;;;4941052;29;19910;-80
2022/01/28 06:23:39;;;;;;;;;;;9.90;77.60;;;;;;4941294;29;19906;-80
2022/01/28 06:26:05;;;;;;;;;;;9.90;77.50;;;;;;4957136;29;19961;-81
2022/01/28 06:28:30;;;;;;;;;;;9.90;77.50;;;;;;4941886;29;19913;-80
2022/01/28 06:30:56;;;;;;;;;;;9.90;77.50;;;;;;4941754;29;19965;-80
2022/01/28 06:33:21;;;;;;;;;;;9.90;77.50;;;;;;4941728;29;19917;-80
2022/01/28 06:35:47;;;;;;;;;;;9.90;77.50;;;;;;4949310;29;19914;-80
2022/01/28 06:38:14;;;;;;;;;;;9.90;77.60;;;;;;4963443;29;19934;-80
2022/01/28 06:40:39;;;;;;;;;;;9.90;77.60;;;;;;4944985;29;19961;-81
2022/01/28 06:43:12;;;;;;;;;;;9.90;77.60;;;;;;4943735;29;19911;-82
2022/01/28 06:45:41;;;;;;;;;;;9.90;77.60;;;;;;4943065;29;19910;-84
2022/01/28 06:48:10;;;;;;;;;;;9.90;77.50;;;;;;4959019;29;20301;-81
2022/01/28 06:50:36;;;;;;;;;;;9.90;77.50;;;;;;4959128;28;19910;-80
2022/01/28 06:53:01;;;;;;;;;;;9.90;77.60;;;;;;4958104;29;19918;-80
2022/01/28 06:55:27;;;;;;;;;;;9.90;77.70;;;;;;4940345;29;20578;-80
2022/01/28 06:57:54;;;;;;;;;;;9.90;77.60;;;;;;4939991;29;19921;-80
2022/01/28 07:00:19;;;;;;;;;;;9.90;77.60;;;;;;4957045;29;19914;-80
2022/01/28 07:02:46;;;;;;;;;;;9.90;77.50;;;;;;4939880;29;19917;-84
2022/01/28 07:05:11;;;;;;;;;;;9.90;77.50;;;;;;4939307;29;19958;-80
2022/01/28 07:07:37;;;;;;;;;;;9.90;77.50;;;;;;4955562;28;19914;-80
2022/01/28 07:10:03;;;;;;;;;;;9.90;77.60;;;;;;4938368;29;20005;-79
2022/01/28 07:12:28;;;;;;;;;;;9.90;77.70;;;;;;4937861;29;19910;-80
2022/01/28 07:14:54;;;;;;;;;;;9.90;77.70;;;;;;4937716;29;19913;-79
2022/01/28 07:17:20;;;;;;;;;;;9.90;77.60;;;;;;4950831;29;19965;-79
2022/01/28 07:19:45;;;;;;;;;;;9.90;77.70;;;;;;4918478;29;19915;-79
2022/01/28 07:22:11;;;;;;;;;;;9.90;77.70;;;;;;4934378;29;19907;-79
2022/01/28 07:24:36;;;;;;;;;;;9.90;77.70;;;;;;4921468;28;19911;-79
2022/01/28 07:27:02;;;;;;;;;;;9.90;77.70;;;;;;4965123;28;19920;-84
2022/01/28 07:29:30;;;;;;;;;;;9.80;77.60;;;;;;4938287;29;19925;-83
2022/01/28 07:31:55;;;;;;;;;;;9.80;77.60;;;;;;4946608;28;19907;-79
2022/01/28 07:34:21;;;;;;;;;;;9.80;77.60;;;;;;4952863;29;19917;-79
2022/01/28 07:36:47;;;;;;;;;;;9.80;77.50;;;;;;4936628;29;19914;-79
2022/01/28 07:39:12;;;;;;;;;;;9.80;77.50;;;;;;4942217;29;20659;-79
2022/01/28 07:41:39;;;;;;;;;;;9.80;77.40;;;;;;4936940;29;20298;-79
2022/01/28 07:44:05;;;;;;;;;;;9.80;77.30;;;;;;4936514;29;19911;-80
2022/01/28 07:46:30;;;;;;;;;;;9.90;77.30;;;;;;4935003;29;19910;-78
2022/01/28 07:48:56;;;;;;;;;;;9.80;77.20;;;;;;4940703;29;20456;-78
2022/01/28 07:51:21;;;;;;;;;;;9.80;77.30;;;;;;4942663;29;20285;-78
2022/01/28 07:53:47;;;;;;;;;;;9.80;77.30;;;;;;4946096;29;19910;-78
2022/01/28 07:56:13;;;;;;;;;;;9.80;77.40;;;;;;4936522;29;19921;-78
2022/01/28 07:58:39;;;;;;;;;;;9.80;77.50;;;;;;4936120;29;20285;-80
2022/01/28 08:01:04;;;;;;;;;;;9.80;77.50;;;;;;4936164;29;19913;-80
2022/01/28 08:03:30;;;;;;;;;;;9.80;77.50;;;;;;4951566;29;19910;-79
2022/01/28 08:05:55;;;;;;;;;;;9.80;77.50;;;;;;4952785;29;19907;-78
2022/01/28 08:08:21;;;;;;;;;;;9.80;77.50;;;;;;4948883;29;19917;-78
2022/01/28 08:10:47;;;;;;;;;;;9.80;77.50;;;;;;4954526;28;19906;-80
2022/01/28 08:13:13;;;;;;;;;;;9.80;77.50;;;;;;4953234;28;20005;-79
2022/01/28 08:15:40;;;;;;;;;;;9.90;77.80;;;;;;4952706;29;19911;-81
2022/01/28 08:18:06;;;;;;;;;;;9.80;77.70;;;;;;4954418;28;19910;-78
2022/01/28 08:20:31;;;;;;;;;;;9.80;77.70;;;;;;4953622;29;19929;-78
2022/01/28 08:22:57;;;;;;;;;;;9.80;77.70;;;;;;4953552;29;19907;-79
2022/01/28 08:25:23;;;;;;;;;;;9.80;77.70;;;;;;4954821;28;19980;-80
2022/01/28 08:27:49;;;;;;;;;;;9.80;77.70;;;;;;4954979;29;20373;-78
2022/01/28 08:30:16;;;;;;;;;;;9.80;77.70;;;;;;4954960;29;20016;-81
2022/01/28 08:32:42;;;;;;;;;;;9.80;77.70;;;;;;4955330;29;19913;-80
2022/01/28 08:35:08;;;;;;;;;;;9.80;77.70;;;;;;4955224;29;19913;-79
2022/01/28 08:37:34;;;;;;;;;;;9.80;77.60;;;;;;4955761;28;19906;-81
2022/01/28 08:40:00;;;;;;;;;;;9.80;77.60;;;;;;4954528;29;19913;-79
2022/01/28 08:42:26;;;;;;;;;;;9.80;77.70;;;;;;4954858;28;19907;-80
2022/01/28 08:44:51;;;;;;;;;;;9.80;77.80;;;;;;4958398;29;20410;-78
2022/01/28 08:47:17;;;;;;;;;;;9.80;77.70;;;;;;4958235;29;19913;-79
2022/01/28 08:49:42;;;;;;;;;;;9.80;77.80;;;;;;4959213;29;19921;-79
2022/01/28 08:52:08;;;;;;;;;;;9.80;77.80;;;;;;4958269;29;19961;-79
2022/01/28 08:54:33;;;;;;;;;;;9.80;77.80;;;;;;4958647;29;19906;-80
2022/01/28 08:56:58;;;;;;;;;;;9.80;77.80;;;;;;4958267;29;20280;-79
2022/01/28 08:59:24;;;;;;;;;;;9.80;77.80;;;;;;4958134;29;19981;-78
2022/01/28 09:01:49;;;;;;;;;;;9.80;77.80;;;;;;4959038;29;19913;-78
2022/01/28 09:04:15;;;;;;;;;;;9.80;77.80;;;;;;4957943;29;19953;-80
2022/01/28 09:06:41;;;;;;;;;;;9.80;77.80;;;;;;4958805;28;20380;-78
2022/01/28 09:09:06;;;;;;;;;;;9.80;77.80;;;;;;4957515;29;19910;-78
2022/01/28 09:11:45;;;;;;;;;;;9.80;77.70;;;;;;4958931;28;20387;-79
2022/01/28 09:14:11;;;;;;;;;;;9.80;77.70;;;;;;4957367;29;19906;-79
2022/01/28 09:16:37;;;;;;;;;;;9.80;77.60;;;;;;4958498;28;19933;-80
2022/01/28 09:19:02;;;;;;;;;;;9.80;78.20;;;;;;4957027;29;19914;-78
2022/01/28 09:21:27;;;;;;;;;;;9.80;77.60;;;;;;4956955;29;19910;-78
2022/01/28 09:23:53;;;;;;;;;;;9.80;77.60;;;;;;4958440;29;20211;-79
2022/01/28 09:26:18;;;;;;;;;;;9.80;77.60;;;;;;4957063;29;19910;-80
2022/01/28 09:28:44;;;;;;;;;;;9.80;77.60;;;;;;4956842;29;19997;-79
2022/01/28 09:31:09;;;;;;;;;;;9.80;77.80;;;;;;4956418;29;19913;-79
2022/01/28 09:33:37;;;;;;;;;;;9.80;77.80;;;;;;4956647;29;19914;-78
2022/01/28 09:36:03;;;;;;;;;;;9.80;77.90;;;;;;4956896;29;19942;-79
2022/01/28 09:38:28;;;;;;;;;;;9.80;77.80;;;;;;4956669;29;19914;-78
2022/01/28 09:40:56;;;;;;;;;;;9.80;77.80;;;;;;4956556;29;19906;-78
2022/01/28 09:43:23;;;;;;;;;;;9.80;77.90;;;;;;4956667;29;19906;-78
2022/01/28 09:45:49;;;;;;;;;;;9.80;77.90;;;;;;4957888;28;20004;-80
2022/01/28 09:48:16;;;;;;;;;;;9.80;77.90;;;;;;4957357;29;19915;-78
2022/01/28 09:50:42;;;;;;;;;;;9.80;77.80;;;;;;4959071;28;19929;-79
2022/01/28 09:53:08;;;;;;;;;;;9.80;77.70;;;;;;4957837;29;19993;-79
2022/01/28 09:55:33;;;;;;;;;;;9.80;77.70;;;;;;4957101;28;19913;-79
2022/01/28 09:57:59;;;;;;;;;;;9.80;77.80;;;;;;4958567;29;20296;-79
2022/01/28 10:00:26;;;;;;;;;;;9.80;77.80;;;;;;4957526;29;19907;-79
2022/01/28 10:02:51;;;;;;;;;;;9.80;77.70;;;;;;4958759;28;19930;-79
2022/01/28 10:05:23;;;;;;;;;;;9.90;77.70;;;;;;4959032;29;19906;-78
2022/01/28 10:08:02;;;;;;;;;;;9.90;77.50;;;;;;4958771;28;19910;-79
2022/01/28 10:10:43;;;;;;;;;;;10.00;77.40;;;;;;4956920;29;20002;-79
2022/01/28 10:13:30;;;;;;;;;;;10.00;77.20;;;;;;4956855;29;19906;-79
2022/01/28 10:15:57;;;;;;;;;;;10.10;77.00;;;;;;4956993;29;19907;-79
2022/01/28 10:18:37;;;;;;;;;;;10.10;76.90;;;;;;4956660;29;20289;-78
2022/01/28 10:21:13;;;;;;;;;;;10.10;76.80;;;;;;4956622;29;19906;-79
2022/01/28 10:23:38;;;;;;;;;;;10.10;76.90;;;;;;4957798;28;20010;-79
2022/01/28 10:26:03;;;;;;;;;;;10.10;77.00;;;;;;4955647;29;19938;-78
2022/01/28 10:28:29;;;;;;;;;;;10.00;76.90;;;;;;4955439;29;19915;-78
2022/01/28 10:30:54;;;;;;;;;;;10.00;77.00;;;;;;4931651;29;19958;-78
2022/01/28 10:33:23;;;;;;;;;;;10.00;77.10;;;;;;4939338;29;19911;-77
2022/01/28 10:35:51;;;;;;;;;;;10.00;77.00;;;;;;4940507;29;19907;-79
2022/01/28 10:38:30;;;;;;;;;;;10.00;77.00;;;;;;4939926;29;19986;-78
2022/01/28 10:41:06;;;;;;;;;;;10.00;77.00;;;;;;4951895;29;19917;-79
2022/01/28 10:43:32;;;;;;;;;;;10.00;77.00;;;;;;4936621;29;19961;-78
2022/01/28 10:46:04;;;;;;;;;;;10.10;77.10;;;;;;4939572;29;19911;-79
2022/01/28 10:48:29;;;;;;;;;;;10.10;77.00;;;;;;4934947;29;19958;-79
2022/01/28 10:50:57;;;;;;;;;;;10.10;77.00;;;;;;4957135;29;19914;-79
2022/01/28 10:53:25;;;;;;;;;;;10.10;77.10;;;;;;4957131;29;19910;-79
2022/01/28 10:55:53;;;;;;;;;;;10.10;77.00;;;;;;4940341;28;20477;-77
2022/01/28 10:58:20;;;;;;;;;;;10.10;76.80;;;;;;4943637;29;19915;-79
2022/01/28 11:00:47;;;;;;;;;;;10.10;76.70;;;;;;4937403;29;19906;-78
2022/01/28 11:03:13;;;;;;;;;;;10.10;76.70;;;;;;4930454;29;19911;-78
2022/01/28 11:05:39;;;;;;;;;;;10.10;76.80;;;;;;4937914;29;20329;-79
2022/01/28 11:08:06;;;;;;;;;;;10.10;76.90;;;;;;4920771;29;19906;-79
2022/01/28 11:10:32;;;;;;;;;;;10.10;76.90;;;;;;4920391;29;19907;-78
2022/01/28 11:12:58;;;;;;;;;;;10.10;76.90;;;;;;4920306;29;19913;-79
2022/01/28 11:15:24;;;;;;;;;;;10.10;76.90;;;;;;4950057;29;19910;-78
2022/01/28 11:17:50;;;;;;;;;;;10.10;77.00;;;;;;4955976;29;20023;-78
2022/01/28 11:20:20;;;;;;;;;;;10.10;77.10;;;;;;4938783;29;19930;-78
2022/01/28 11:22:50;;;;;;;;;;;10.10;77.00;;;;;;4938819;29;20433;-78
2022/01/28 11:25:30;;;;;;;;;;;10.10;77.10;;;;;;4938933;29;20358;-78
2022/01/28 11:27:55;;;;;;;;;;;10.10;77.20;;;;;;4956206;29;19907;-78
2022/01/28 11:30:22;;;;;;;;;;;10.10;77.20;;;;;;4938511;29;19906;-78
2022/01/28 11:33:08;;;;;;;;;;;10.00;77.10;;;;;;4955864;29;19913;-78
2022/01/28 11:35:38;;;;;;;;;;;10.00;77.20;;;;;;4936057;29;19911;-78
2022/01/28 11:38:22;;;;;;;;;;;10.00;77.30;;;;;;4949942;29;19914;-79
2022/01/28 11:40:53;;;;;;;;;;;10.10;77.40;;;;;;4924809;29;19910;-78
2022/01/28 11:43:20;;;;;;;;;;;10.10;77.30;;;;;;4948382;29;19914;-78
2022/01/28 11:45:45;;;;;;;;;;;10.10;77.40;;;;;;4932887;29;19950;-78
2022/01/28 11:48:11;;;;;;;;;;;10.10;77.30;;;;;;4931234;29;19957;-78
2022/01/28 11:50:36;;;;;;;;;;;10.10;77.30;;;;;;4956090;29;19907;-80
2022/01/28 11:53:18;;;;;;;;;;;10.20;77.30;;;;;;4940596;29;19929;-79
2022/01/28 11:55:44;;;;;;;;;;;10.20;77.30;;;;;;4958397;28;19915;-79
2022/01/28 11:58:12;;;;;;;;;;;10.20;77.30;;;;;;4941473;28;20376;-79
2022/01/28 12:00:39;;;;;;;;;;;10.10;77.10;;;;;;4940374;29;19917;-79
2022/01/28 12:03:18;;;;;;;;;;;10.10;77.30;;;;;;4959594;28;19918;-79
2022/01/28 12:05:43;;;;;;;;;;;10.10;77.20;;;;;;4958393;28;19971;-79
2022/01/28 12:08:10;;;;;;;;;;;10.10;77.30;;;;;;4976555;28;19977;-79
2022/01/28 12:10:41;;;;;;;;;;;10.00;77.40;;;;;;4955083;28;19910;-80
2022/01/28 12:13:12;;;;;;;;;;;10.10;77.60;;;;;;4950063;29;19961;-80
2022/01/28 12:18:45;;;;;;;;;;;10.10;77.60;;;;;;4955787;28;19918;-80
2022/01/28 12:21:18;;;;;;;;;;;10.10;77.60;;;;;;4956812;29;20219;-79
2022/01/28 12:23:44;;;;;;;;;;;10.10;77.70;;;;;;4956837;29;19913;-80
2022/01/28 12:26:11;;;;;;;;;;;10.10;77.70;;;;;;4956529;29;19911;-80
2022/01/28 12:28:37;;;;;;;;;;;10.10;77.80;;;;;;4957469;28;20342;-80
2022/01/28 12:31:25;;;;;;;;;;;10.10;77.70;;;;;;4957380;29;19917;-79
2022/01/28 12:33:55;;;;;;;;;;;10.10;77.70;;;;;;4948041;29;19913;-79
2022/01/28 12:36:22;;;;;;;;;;;10.10;77.70;;;;;;4955914;29;19907;-80
2022/01/28 12:39:09;;;;;;;;;;;10.10;77.60;;;;;;4957515;28;19911;-79
2022/01/28 12:41:42;;;;;;;;;;;10.10;77.60;;;;;;4955604;29;20275;-80
2022/01/28 12:44:08;;;;;;;;;;;10.10;77.60;;;;;;4957424;28;19952;-79
2022/01/28 12:46:36;;;;;;;;;;;10.10;77.70;;;;;;4955757;29;19907;-79
2022/01/28 12:49:02;;;;;;;;;;;10.00;77.70;;;;;;4955056;29;19915;-79
2022/01/28 12:51:28;;;;;;;;;;;10.10;77.70;;;;;;4954463;29;19907;-79
2022/01/28 12:53:57;;;;;;;;;;;10.10;77.50;;;;;;4941369;29;19917;-80
2022/01/28 12:56:48;;;;;;;;;;;10.20;77.50;;;;;;4939028;29;19906;-79
2022/01/28 12:59:14;;;;;;;;;;;10.20;77.40;;;;;;4954252;29;20392;-79
2022/01/28 13:01:39;;;;;;;;;;;10.20;77.00;;;;;;4954527;29;19940;-79
2022/01/28 13:04:15;;;;;;;;;;;10.30;77.20;;;;;;4954544;29;20392;-79
2022/01/28 13:06:54;;;;;;;;;;;10.30;77.30;;;;;;4940133;29;19994;-80
2022/01/28 13:09:23;;;;;;;;;;;10.30;77.00;;;;;;4955424;28;19934;-80
2022/01/28 13:11:49;;;;;;;;;;;10.40;76.90;;;;;;4955516;29;19907;-80
2022/01/28 13:14:18;;;;;;;;;;;10.40;76.50;;;;;;4942477;29;19910;-81
2022/01/28 13:16:45;;;;;;;;;;;10.40;76.60;;;;;;4942095;29;19911;-79
2022/01/28 13:19:11;;;;;;;;;;;10.30;76.50;;;;;;4959300;29;19914;-80
2022/01/28 13:21:37;;;;;;;;;;;10.30;76.60;;;;;;4954568;29;19910;-81
2022/01/28 13:24:15;;;;;;;;;;;10.30;76.80;;;;;;4958074;29;19914;-80
2022/01/28 13:26:59;;;;;;;;;;;10.30;76.80;;;;;;4958776;29;19938;-80
2022/01/28 13:29:28;;;;;;;;;;;10.30;76.70;;;;;;4940995;29;19906;-80
2022/01/28 13:31:58;;;;;;;;;;;10.30;76.80;;;;;;4944595;29;19922;-80
2022/01/28 13:34:24;;;;;;;;;;;10.30;76.80;;;;;;4944787;29;19907;-80
2022/01/28 13:36:50;;;;;;;;;;;10.20;76.80;;;;;;4962022;29;19966;-80
2022/01/28 13:39:18;;;;;;;;;;;10.20;76.90;;;;;;4944217;29;20286;-80
2022/01/28 13:41:46;;;;;;;;;;;10.20;77.00;;;;;;4947802;28;20326;-80
2022/01/28 13:44:25;;;;;;;;;;;10.20;77.10;;;;;;4955397;28;19997;-81
2022/01/28 13:46:54;;;;;;;;;;;10.20;77.20;;;;;;4935921;29;19906;-79
2022/01/28 13:49:20;;;;;;;;;;;10.20;77.20;;;;;;4946697;29;19980;-78
2022/01/28 13:51:46;;;;;;;;;;;10.10;77.40;;;;;;4937609;29;19930;-78
2022/01/28 13:54:15;;;;;;;;;;;10.10;77.50;;;;;;4940161;29;20370;-79
2022/01/28 13:56:42;;;;;;;;;;;10.10;77.50;;;;;;4937413;29;19906;-78
2022/01/28 13:59:09;;;;;;;;;;;10.10;77.60;;;;;;4961586;28;19911;-79
2022/01/28 14:01:35;;;;;;;;;;;10.10;77.80;;;;;;4959555;29;20357;-80
2022/01/28 14:04:02;;;;;;;;;;;10.10;77.90;;;;;;4960807;29;20309;-80
2022/01/28 14:06:27;;;;;;;;;;;10.10;78.00;;;;;;4959558;29;19913;-78
2022/01/28 14:09:02;;;;;;;;;;;10.10;78.00;;;;;;4941610;29;19907;-79
2022/01/28 14:11:37;;;;;;;;;;;10.10;78.10;;;;;;4958802;29;19911;-79
2022/01/28 14:14:23;;;;;;;;;;;10.00;78.20;;;;;;4958679;29;19958;-78
2022/01/28 14:16:53;;;;;;;;;;;10.00;78.20;;;;;;4940998;29;19921;-80
2022/01/28 14:19:19;;;;;;;;;;;10.00;78.40;;;;;;4940939;29;19910;-79
2022/01/28 14:21:45;;;;;;;;;;;10.00;78.40;;;;;;4940511;29;20405;-78
2022/01/28 14:24:15;;;;;;;;;;;10.00;78.40;;;;;;4941012;29;20293;-80
2022/01/28 14:26:43;;;;;;;;;;;10.00;78.50;;;;;;4940344;29;20289;-79
2022/01/28 14:29:56;;;;;;;;;;;10.00;78.50;;;;;;4940358;29;20309;-79
2022/01/28 14:31:54;;;;;;;;;;;10.00;78.50;;;;;;4947565;29;19906;-80
2022/01/28 14:34:21;;;;;;;;;;;10.00;78.50;;;;;;4957815;29;19956;-80
2022/01/28 14:36:46;;;;;;;;;;;10.00;78.50;;;;;;4940637;29;19910;-80
2022/01/28 14:39:14;;;;;;;;;;;10.00;78.60;;;;;;4927440;29;19938;-80
2022/01/28 14:41:40;;;;;;;;;;;10.00;78.50;;;;;;4937437;29;20005;-81
2022/01/28 14:44:05;;;;;;;;;;;10.00;78.50;;;;;;4920855;29;20001;-81
2022/01/28 14:46:32;;;;;;;;;;;10.00;78.50;;;;;;4920827;29;20306;-80
2022/01/28 14:48:58;;;;;;;;;;;10.00;78.50;;;;;;4937783;29;20374;-80
2022/01/28 14:51:24;;;;;;;;;;;10.00;78.50;;;;;;4920333;29;19907;-80
2022/01/28 14:53:51;;;;;;;;;;;10.00;78.60;;;;;;4937966;29;19997;-80
2022/01/28 14:56:17;;;;;;;;;;;10.00;78.70;;;;;;4920580;29;20312;-81
2022/01/28 14:58:44;;;;;;;;;;;10.00;78.60;;;;;;4931380;29;19910;-80
2022/01/28 15:01:10;;;;;;;;;;;10.00;78.70;;;;;;4939197;29;20000;-80
2022/01/28 15:03:36;;;;;;;;;;;10.00;78.80;;;;;;4939059;29;20357;-80
2022/01/28 15:06:01;;;;;;;;;;;10.00;78.80;;;;;;4956041;29;19907;-80
2022/01/28 15:08:27;;;;;;;;;;;10.00;79.30;;;;;;4951652;29;19907;-80
2022/01/28 15:10:55;;;;;;;;;;;10.00;78.80;;;;;;4934827;29;19907;-81
2022/01/28 15:13:21;;;;;;;;;;;10.00;78.80;;;;;;4940153;29;20293;-81
2022/01/28 15:15:46;;;;;;;;;;;9.90;79.30;;;;;;4935758;29;19907;-81
2022/01/28 15:18:12;;;;;;;;;;;9.90;78.80;;;;;;4959009;29;19910;-81
2022/01/28 15:20:38;;;;;;;;;;;9.90;78.70;;;;;;4939629;29;19906;-81
2022/01/28 15:23:04;;;;;;;;;;;9.90;78.80;;;;;;4950508;29;19907;-81
2022/01/28 15:25:31;;;;;;;;;;;9.90;78.80;;;;;;4941009;29;19910;-81
2022/01/28 15:27:56;;;;;;;;;;;9.90;78.80;;;;;;4943118;29;20034;-81
2022/01/28 15:38:27;;;;;;;;;;;9.90;78.80;;;;;;4935815;29;19957;-80
2022/01/28 15:40:53;;;;;;;;;;;9.90;78.70;;;;;;4937910;29;19907;-80
2022/01/28 15:43:20;;;;;;;;;;;10.00;78.80;;;;;;4926792;29;19913;-80
2022/01/28 15:45:47;;;;;;;;;;;9.90;78.70;;;;;;4928562;29;19906;-80
2022/01/28 15:48:13;;;;;;;;;;;9.90;78.80;;;;;;4929369;29;19915;-80
2022/01/28 15:50:38;;;;;;;;;;;9.90;78.80;;;;;;4942973;29;19994;-80